Time;durP1;ratioP1;P1;durP2;ratioP2;P2;SDS_P1;SDS_P2;PMS_P1;PMS_P2;Temp;Humidity;BMP_temperature;BMP_pressure;BME280_temperature;BME280_humidity;BME280_pressure;Samples;Min_cycle;Max_cycle;Signal;HPM_P1;HPM_P2
2023/04/09 00:07:27;;;;;;;1124.65;999.90;;;;;;;20.00;42.95;100959.00;20673582;28;20053;-76
2023/04/09 00:17:27;;;;;;;1129.65;999.90;;;;;;;20.00;42.79;100960.81;20669167;28;20145;-75
2023/04/09 00:27:27;;;;;;;1126.13;999.90;;;;;;;19.97;42.88;100961.84;20675493;28;20136;-75
2023/04/09 00:37:29;;;;;;;1123.47;999.90;;;;;;;19.98;43.11;100960.91;20690826;28;20053;-75
2023/04/09 00:47:29;;;;;;;1125.50;999.90;;;;;;;19.95;43.12;100957.63;20689385;28;20081;-76
2023/04/09 00:57:31;;;;;;;1118.43;999.90;;;;;;;19.95;43.04;100949.75;20689522;28;20066;-76
2023/04/09 01:07:56;;;;;;;1123.63;999.90;;;;;;;19.93;43.13;100951.63;20680250;28;20782;-76
2023/04/09 01:18:11;;;;;;;1125.25;999.90;;;;;;;19.91;42.87;100946.47;20684281;28;20462;-77
2023/04/09 01:28:38;;;;;;;1127.90;999.90;;;;;;;19.90;42.71;100951.81;20684058;28;20046;-75
2023/04/09 01:38:41;;;;;;;1127.22;999.90;;;;;;;19.91;42.92;100951.72;20681893;28;20102;-76
2023/04/09 01:48:42;;;;;;;;;;;;;;;19.90;43.00;100951.81;20687271;28;20577;-75
2023/04/09 01:58:42;;;;;;;1127.15;999.90;;;;;;;19.88;43.08;100962.41;20679683;28;20317;-75
2023/04/09 02:08:46;;;;;;;1127.97;999.90;;;;;;;19.87;42.89;100959.88;20679239;28;20053;-76
2023/04/09 02:18:46;;;;;;;1127.47;999.90;;;;;;;19.85;42.62;100949.50;20676228;28;20479;-75
2023/04/09 02:28:47;;;;;;;1120.85;999.90;;;;;;;19.83;42.99;100943.44;20675079;28;20070;-76
2023/04/09 02:38:47;;;;;;;1125.15;999.90;;;;;;;19.81;42.97;100937.44;20673533;28;20294;-76
2023/04/09 02:48:48;;;;;;;1125.03;999.90;;;;;;;19.80;43.01;100947.09;20673842;28;20108;-78
2023/04/09 02:58:52;;;;;;;1125.32;999.90;;;;;;;19.80;42.97;100939.22;20677296;28;20056;-76
2023/04/09 03:08:52;;;;;;;1129.47;999.90;;;;;;;19.77;42.75;100952.53;20673523;28;20049;-75
2023/04/09 03:18:53;;;;;;;1126.32;999.90;;;;;;;19.78;42.92;100946.34;20672313;28;20501;-76
2023/04/09 03:28:53;;;;;;;1124.15;999.90;;;;;;;19.77;42.79;100943.81;20686265;28;20042;-76
2023/04/09 03:38:54;;;;;;;1122.93;999.90;;;;;;;19.76;42.83;100944.75;20670430;28;20061;-78
2023/04/09 03:48:54;;;;;;;1126.38;999.90;;;;;;;19.72;42.88;100938.84;20674798;28;20691;-76
2023/04/09 03:58:54;;;;;;;1125.40;999.90;;;;;;;19.73;42.84;100950.22;20675631;28;20445;-76
2023/04/09 04:08:55;;;;;;;1120.90;999.90;;;;;;;19.70;42.96;100950.41;20679538;28;20049;-75
2023/04/09 04:18:55;;;;;;;1121.60;999.90;;;;;;;19.72;42.74;100956.41;20679968;28;20050;-76
2023/04/09 04:28:56;;;;;;;1123.40;999.90;;;;;;;19.70;42.70;100964.41;20673422;28;20794;-76
2023/04/09 04:38:56;;;;;;;1122.40;999.90;;;;;;;19.67;42.62;100964.56;20684098;28;20057;-76
2023/04/09 04:48:56;;;;;;;1126.55;999.90;;;;;;;19.66;42.80;100979.50;20670974;28;20501;-76
2023/04/09 04:58:57;;;;;;;1123.07;999.90;;;;;;;19.66;42.75;100973.38;20673857;28;20100;-76
2023/04/09 05:08:57;;;;;;;1121.07;999.90;;;;;;;19.65;42.73;100974.31;20671260;28;20050;-78
2023/04/09 05:18:58;;;;;;;1121.90;999.90;;;;;;;19.64;42.89;100977.88;20677217;28;20042;-76
2023/04/09 05:29:00;;;;;;;1119.57;999.90;;;;;;;19.64;42.74;100986.63;20681837;28;20038;-75
2023/04/09 05:39:01;;;;;;;1114.53;999.90;;;;;;;19.61;42.73;100992.06;20678108;28;20050;-76
2023/04/09 05:49:01;;;;;;;1121.75;999.90;;;;;;;19.64;42.59;101005.03;20677816;28;20053;-76
2023/04/09 05:59:05;;;;;;;1119.80;999.90;;;;;;;19.63;42.85;101003.31;20682128;28;20053;-77
2023/04/09 06:09:05;;;;;;;1122.05;999.90;;;;;;;19.63;42.65;101010.38;20680550;28;20489;-76
2023/04/09 06:19:11;;;;;;;1117.85;999.90;;;;;;;19.62;42.59;101020.03;20672327;28;20053;-75
2023/04/09 06:29:12;;;;;;;1122.72;999.90;;;;;;;19.61;42.54;101013.06;20670605;28;20048;-76
2023/04/09 06:39:13;;;;;;;1119.75;999.90;;;;;;;19.62;42.68;101012.13;20679802;28;20524;-77
2023/04/09 06:49:13;;;;;;;1121.78;999.90;;;;;;;19.61;42.63;101018.31;20672870;28;20100;-75
2023/04/09 06:59:15;;;;;;;1121.82;999.90;;;;;;;19.63;42.80;101028.75;20676256;28;20104;-76
2023/04/09 07:09:17;;;;;;;1119.72;999.90;;;;;;;19.62;42.67;101035.78;20674075;28;20046;-76
2023/04/09 07:19:17;;;;;;;1118.95;999.90;;;;;;;19.61;42.66;101047.22;20675539;28;20524;-76
2023/04/09 07:29:19;;;;;;;1120.28;999.90;;;;;;;19.63;42.53;101057.66;20674047;28;20057;-76
2023/04/09 07:39:19;;;;;;;1118.10;999.90;;;;;;;19.64;42.71;101051.44;20652532;28;20050;-74
2023/04/09 07:49:21;;;;;;;1118.28;999.90;;;;;;;19.64;42.56;101062.81;20671995;28;20413;-75
2023/04/09 07:59:21;;;;;;;1117.13;999.90;;;;;;;19.64;42.64;101054.94;20679327;28;20046;-76
2023/04/09 08:09:22;;;;;;;1122.07;999.90;;;;;;;19.68;42.58;101059.06;20687996;28;20130;-76
2023/04/09 08:19:22;;;;;;;1121.15;999.90;;;;;;;19.68;42.65;101060.84;20680723;28;20379;-74
2023/04/09 08:29:23;;;;;;;1118.50;999.90;;;;;;;19.70;42.33;101066.00;20677991;28;20072;-76
2023/04/09 08:39:24;;;;;;;1120.63;999.90;;;;;;;19.73;42.39;101074.56;20680028;28;20073;-75
2023/04/09 08:49:24;;;;;;;1126.55;999.90;;;;;;;19.76;42.31;101087.53;20674310;28;20042;-72
2023/04/09 08:59:26;;;;;;;1125.45;999.90;;;;;;;19.77;42.24;101094.44;20701378;28;20054;-76
2023/04/09 09:09:26;;;;;;;1124.75;999.90;;;;;;;19.79;42.41;101092.56;20705616;28;20042;-76
2023/04/09 09:19:29;;;;;;;1125.10;999.90;;;;;;;19.81;42.25;101103.84;20699496;28;20053;-75
2023/04/09 09:29:30;;;;;;;1121.30;999.90;;;;;;;19.82;42.08;101099.44;20694921;28;20046;-77
2023/04/09 09:39:43;;;;;;;1124.60;999.90;;;;;;;19.82;42.13;101094.16;20688823;28;20042;-76
2023/04/09 09:49:44;;;;;;;1122.72;999.90;;;;;;;19.83;42.15;101090.59;20687771;28;20046;-76
2023/04/09 09:59:53;;;;;;;1128.15;999.90;;;;;;;19.82;42.10;101087.16;20687097;28;20129;-74
2023/04/09 10:09:55;;;;;;;1127.88;999.90;;;;;;;19.83;42.16;101093.25;20682360;28;20481;-77
2023/04/09 10:20:04;;;;;;;1121.67;999.90;;;;;;;19.84;42.05;101089.72;20680949;28;20047;-76
2023/04/09 10:30:09;;;;;;;1124.40;999.90;;;;;;;19.84;42.06;101081.81;20680024;28;20133;-77
2023/04/09 10:40:18;;;;;;;1123.03;999.90;;;;;;;19.87;42.05;101091.31;20675056;28;20387;-76
2023/04/09 10:50:31;;;;;;;1127.60;999.90;;;;;;;19.87;42.03;101081.63;20674801;28;20133;-76
2023/04/09 11:00:35;;;;;;;1121.97;999.90;;;;;;;19.88;42.02;101071.97;20691439;28;20877;-75
2023/04/09 11:10:41;;;;;;;1124.43;999.90;;;;;;;19.87;42.17;101080.78;20687509;28;20042;-76
2023/04/09 11:20:41;;;;;;;1120.25;999.90;;;;;;;19.85;42.10;101083.53;20685092;28;20052;-75
2023/04/09 11:30:42;;;;;;;1118.95;999.90;;;;;;;19.84;42.26;101072.13;20680179;28;20130;-75
2023/04/09 11:40:50;;;;;;;1118.78;999.90;;;;;;;19.87;42.11;101065.84;20692913;28;20049;-76
2023/04/09 11:50:51;;;;;;;1123.93;999.90;;;;;;;19.88;41.96;101070.19;20683847;28;20046;-75
2023/04/09 12:00:53;;;;;;;1120.93;999.90;;;;;;;19.89;42.02;101063.16;20684280;28;20517;-75
2023/04/09 12:10:54;;;;;;;1120.97;999.90;;;;;;;19.94;41.99;101063.72;20681224;28;20429;-75
2023/04/09 12:20:54;;;;;;;1131.15;999.90;;;;;;;20.01;42.06;101051.88;20682590;28;20104;-75
2023/04/09 12:30:55;;;;;;;1132.18;999.90;;;;;;;20.05;42.07;101049.91;20695941;28;20059;-76
2023/04/09 12:40:56;;;;;;;1134.85;999.90;;;;;;;20.18;41.82;101037.69;20696155;28;20048;-76
2023/04/09 12:50:56;;;;;;;1137.63;999.90;;;;;;;20.30;41.74;101036.06;20699372;28;20080;-76
2023/04/09 13:00:57;;;;;;;1140.20;999.90;;;;;;;20.40;41.65;101036.34;20698717;28;20034;-74
2023/04/09 13:10:57;;;;;;;1144.65;999.90;;;;;;;20.46;41.63;101026.25;20705255;28;20104;-76
2023/04/09 13:20:58;;;;;;;1142.38;999.90;;;;;;;20.46;41.68;101015.72;20708035;28;20042;-77
2023/04/09 13:30:59;;;;;;;1142.75;999.90;;;;;;;20.44;41.76;101011.50;20699649;28;20046;-75
2023/04/09 13:41:00;;;;;;;1136.45;999.90;;;;;;;20.40;41.48;101002.97;20707705;28;20050;-76
2023/04/09 13:51:00;;;;;;;1140.15;999.90;;;;;;;20.39;41.73;101005.72;20696697;28;20042;-76
2023/04/09 14:01:01;;;;;;;1138.82;999.90;;;;;;;20.46;41.75;101007.00;20690521;28;20039;-76
2023/04/09 14:11:01;;;;;;;1143.85;999.90;;;;;;;20.56;41.44;100992.28;20686460;28;20057;-76
2023/04/09 14:21:05;;;;;;;1149.40;999.90;;;;;;;20.66;41.58;100983.81;20683418;28;20038;-76
2023/04/09 14:31:06;;;;;;;1153.55;999.90;;;;;;;20.81;41.28;100976.72;20682538;28;20046;-76
2023/04/09 14:41:07;;;;;;;1158.15;999.90;;;;;;;20.81;40.88;100971.44;20683230;28;20056;-78
2023/04/09 14:51:09;;;;;;;1157.43;999.90;;;;;;;20.78;41.09;100977.75;20670745;28;20402;-77
2023/04/09 15:01:10;;;;;;;1152.63;999.90;;;;;;;20.73;40.87;100975.44;20687661;28;20253;-76
2023/04/09 15:11:17;;;;;;;1151.30;999.90;;;;;;;20.69;41.13;100966.03;20684526;28;20065;-75
2023/04/09 15:21:17;;;;;;;1150.05;999.90;;;;;;;20.66;40.78;100974.13;20694458;28;20046;-76
2023/04/09 15:31:18;;;;;;;1148.80;999.90;;;;;;;20.62;41.03;100975.28;20690943;28;20104;-75
2023/04/09 15:41:20;;;;;;;1144.05;999.90;;;;;;;20.55;40.60;100969.56;20685863;28;20062;-77
2023/04/09 15:51:25;;;;;;;1140.00;999.90;;;;;;;20.50;40.79;100974.28;20686360;28;20486;-76
2023/04/09 16:01:27;;;;;;;1143.82;999.90;;;;;;;20.45;40.89;100973.75;20685740;28;20069;-76
2023/04/09 16:11:27;;;;;;;1137.53;999.90;;;;;;;20.45;41.68;100968.47;20647473;28;20045;-80
2023/04/09 16:21:28;;;;;;;1138.82;999.90;;;;;;;20.43;41.82;100973.84;20650017;28;20034;-78
2023/04/09 16:31:28;;;;;;;1140.53;999.90;;;;;;;20.43;42.40;100973.84;20666154;28;20564;-81
2023/04/09 16:41:29;;;;;;;1135.20;999.90;;;;;;;20.29;38.44;100976.53;20653064;28;20053;-76
2023/04/09 16:51:30;;;;;;;1135.07;999.90;;;;;;;20.32;40.82;100978.94;20660969;28;20777;-76
2023/04/09 17:01:30;;;;;;;1130.43;999.90;;;;;;;20.33;41.46;100975.38;20652276;28;20204;-76
2023/04/09 17:11:31;;;;;;;1135.47;999.90;;;;;;;20.31;41.97;100974.63;20654472;28;20284;-76
2023/04/09 17:21:32;;;;;;;1135.65;999.90;;;;;;;20.31;42.41;100978.09;20656447;28;20038;-74
2023/04/09 17:31:32;;;;;;;1133.65;999.90;;;;;;;20.28;42.73;100987.97;20667545;28;20061;-75
2023/04/09 17:41:32;;;;;;;1134.05;999.90;;;;;;;20.27;42.77;100987.13;20657977;28;20045;-73
2023/04/09 17:51:33;;;;;;;1132.35;999.90;;;;;;;20.24;43.39;100992.59;20648707;28;20841;-74
2023/04/09 18:01:34;;;;;;;1133.10;999.90;;;;;;;20.24;43.17;101004.91;20668020;28;20400;-73
2023/04/09 18:11:34;;;;;;;1134.00;999.90;;;;;;;20.22;43.41;101004.97;20666363;28;20052;-75
2023/04/09 18:21:36;;;;;;;1131.82;999.90;;;;;;;20.25;43.70;101022.34;20659243;28;20053;-76
2023/04/09 18:31:37;;;;;;;1133.03;999.90;;;;;;;20.22;44.19;101026.03;20656401;28;20038;-75
2023/04/09 18:41:37;;;;;;;1134.20;999.90;;;;;;;20.24;44.17;101034.66;20654565;28;20046;-75
2023/04/09 18:51:37;;;;;;;1131.45;999.90;;;;;;;20.24;44.44;101032.03;20651033;28;20042;-76
2023/04/09 19:01:40;;;;;;;1124.85;999.90;;;;;;;20.25;44.76;101041.63;20651744;28;20049;-77
2023/04/09 19:11:41;;;;;;;1123.70;999.90;;;;;;;20.21;44.45;101045.38;20649881;28;20069;-74
2023/04/09 19:21:42;;;;;;;1129.35;999.90;;;;;;;20.19;44.43;101046.41;20659175;28;20053;-78
2023/04/09 19:31:43;;;;;;;1129.22;999.90;;;;;;;20.19;44.29;101051.66;20674637;28;20046;-76
2023/04/09 19:41:43;;;;;;;1127.07;999.90;;;;;;;20.18;44.35;101047.34;20664349;28;20397;-79
2023/04/09 19:51:44;;;;;;;1126.45;999.90;;;;;;;20.19;44.37;101038.50;20670539;28;20038;-80
2023/04/09 20:01:50;;;;;;;1126.35;999.90;;;;;;;20.18;44.70;101042.94;20676252;28;20038;-76
2023/04/09 20:11:52;;;;;;;1128.95;999.90;;;;;;;20.19;44.80;101051.66;20668551;28;20133;-79
2023/04/09 20:21:53;;;;;;;1125.60;999.90;;;;;;;20.18;44.97;101050.84;20669931;28;20045;-79
2023/04/09 20:31:54;;;;;;;1129.85;999.90;;;;;;;20.20;45.03;101058.63;20661779;28;20034;-80
2023/04/09 20:41:55;;;;;;;1128.40;999.90;;;;;;;20.19;45.07;101060.41;20662553;28;20518;-79
2023/04/09 20:51:55;;;;;;;1130.88;999.90;;;;;;;20.20;45.15;101055.97;20674806;28;20290;-78
2023/04/09 21:01:56;;;;;;;1132.47;999.90;;;;;;;20.19;45.40;101049.03;20687153;28;20042;-77
2023/04/09 21:11:57;;;;;;;1130.50;999.90;;;;;;;20.17;45.12;101049.13;20691537;28;20054;-78
2023/04/09 21:21:57;;;;;;;1130.30;999.90;;;;;;;20.18;45.12;101050.84;20691227;28;20034;-78
2023/04/09 21:32:10;;;;;;;1130.40;999.90;;;;;;;20.17;45.58;101048.31;20684569;28;20964;-76
2023/04/09 21:42:10;;;;;;;1126.87;999.90;;;;;;;20.17;45.41;101049.13;20684525;28;20129;-78
2023/04/09 21:52:13;;;;;;;1130.15;999.90;;;;;;;20.17;45.52;101045.69;20686309;28;20069;-77
2023/04/09 22:02:13;;;;;;;1125.83;999.90;;;;;;;20.17;45.62;101051.75;20672629;28;20034;-81
2023/04/09 22:12:14;;;;;;;1132.65;999.90;;;;;;;20.17;45.57;101056.19;20651671;28;20046;-78
2023/04/09 22:22:15;;;;;;;1130.05;999.90;;;;;;;20.15;45.59;101051.00;20681473;28;20062;-79
2023/04/09 22:32:15;;;;;;;1130.57;999.90;;;;;;;20.17;45.29;101061.44;20662363;28;20534;-75
2023/04/09 22:42:16;;;;;;;1133.25;999.90;;;;;;;20.17;45.58;101056.19;20665875;28;20040;-78
2023/04/09 22:52:16;;;;;;;1132.53;999.90;;;;;;;20.14;45.63;101052.81;20672577;28;20393;-79
2023/04/09 23:02:17;;;;;;;1131.93;999.90;;;;;;;20.17;45.62;101062.28;20668215;28;20613;-78
2023/04/09 23:12:17;;;;;;;1129.65;999.90;;;;;;;20.17;45.66;101058.81;20660368;28;20046;-79
2023/04/09 23:22:23;;;;;;;1130.43;999.90;;;;;;;20.14;45.26;101047.53;20665255;28;20123;-78
2023/04/09 23:32:23;;;;;;;1130.00;999.90;;;;;;;20.15;45.51;101049.25;20656858;28;20124;-76
2023/04/09 23:42:31;;;;;;;1131.10;999.90;;;;;;;20.14;45.25;101047.53;20656755;28;20054;-76
2023/04/09 23:52:36;;;;;;;1130.88;999.90;;;;;;;20.13;45.25;101051.13;20660855;28;20661;-78
